logo
Search for airport 
image banner adimage banner adimage banner ad
image banner ad

HKON - Kone

Located in , Kenya

ICAO - , IATA -

Data provided by Airmate  

General information

Coordinates: S2°13'9" E39°6'3"
Elevation is 797 feet MSL.
 
View others Airports in Coast Province

Operational data

Special qualification required
Current time UTC:
Current local time:
Weather at : - ( 0 km )
METAR: SBMQ 180645Z 31003KT 9999 SCT004 BKN100 26/25 Q1009
View NOTAMs / SUP AIP / TFR affecting this airport [VIEW]
Communications frequencies: [VIEW]

Runways:

RWY identifierQFULength (ft)Width (ft)SurfaceLDA (ft)
1600UNK
3400UNK

Airport contact information

Address: Kenya

Satellite view of HKON